sensor_id;sensor_type;location;lat;lon;timestamp;temperature;humidity
22956;DHT22;40888;48.148;11.526;2023-07-13T00:02:16;18.30;99.90
22956;DHT22;40888;48.148;11.526;2023-07-13T00:04:43;18.30;99.90
22956;DHT22;40888;48.148;11.526;2023-07-13T00:07:09;18.30;99.90
22956;DHT22;40888;48.148;11.526;2023-07-13T00:09:35;18.30;99.90
22956;DHT22;40888;48.148;11.526;2023-07-13T00:12:01;18.30;99.90
22956;DHT22;40888;48.148;11.526;2023-07-13T00:14:29;18.30;99.90
22956;DHT22;40888;48.148;11.526;2023-07-13T00:16:55;18.30;99.90
22956;DHT22;40888;48.148;11.526;2023-07-13T00:19:21;18.30;99.90
22956;DHT22;40888;48.148;11.526;2023-07-13T00:21:47;18.30;99.90
22956;DHT22;40888;48.148;11.526;2023-07-13T00:24:15;18.30;99.90
22956;DHT22;40888;48.148;11.526;2023-07-13T00:26:43;18.20;99.90
22956;DHT22;40888;48.148;11.526;2023-07-13T00:29:12;18.30;99.90
22956;DHT22;40888;48.148;11.526;2023-07-13T00:31:38;18.30;99.90
22956;DHT22;40888;48.148;11.526;2023-07-13T00:34:04;18.30;99.90
22956;DHT22;40888;48.148;11.526;2023-07-13T00:36:30;18.20;99.90
22956;DHT22;40888;48.148;11.526;2023-07-13T00:38:56;18.20;99.90
22956;DHT22;40888;48.148;11.526;2023-07-13T00:41:22;18.30;99.90
22956;DHT22;40888;48.148;11.526;2023-07-13T00:43:47;18.20;99.90
22956;DHT22;40888;48.148;11.526;2023-07-13T00:46:18;18.30;99.90
22956;DHT22;40888;48.148;11.526;2023-07-13T00:48:46;18.30;99.90
22956;DHT22;40888;48.148;11.526;2023-07-13T00:51:14;18.30;99.90
22956;DHT22;40888;48.148;11.526;2023-07-13T00:53:41;18.30;99.90
22956;DHT22;40888;48.148;11.526;2023-07-13T00:56:07;18.20;99.90
22956;DHT22;40888;48.148;11.526;2023-07-13T00:58:33;18.30;99.90
22956;DHT22;40888;48.148;11.526;2023-07-13T01:01:00;18.30;99.90
22956;DHT22;40888;48.148;11.526;2023-07-13T01:03:25;18.30;99.90
22956;DHT22;40888;48.148;11.526;2023-07-13T01:05:51;18.30;99.90
22956;DHT22;40888;48.148;11.526;2023-07-13T01:08:20;18.20;99.90
22956;DHT22;40888;48.148;11.526;2023-07-13T01:10:56;18.30;99.90
22956;DHT22;40888;48.148;11.526;2023-07-13T01:13:22;18.30;99.90
22956;DHT22;40888;48.148;11.526;2023-07-13T01:15:49;18.20;99.90
22956;DHT22;40888;48.148;11.526;2023-07-13T01:18:21;18.20;99.90
22956;DHT22;40888;48.148;11.526;2023-07-13T01:21:04;18.30;99.90
22956;DHT22;40888;48.148;11.526;2023-07-13T01:23:31;18.30;99.90
22956;DHT22;40888;48.148;11.526;2023-07-13T01:25:58;18.30;99.90
22956;DHT22;40888;48.148;11.526;2023-07-13T01:28:25;18.20;99.90
22956;DHT22;40888;48.148;11.526;2023-07-13T01:30:53;18.30;99.90
22956;DHT22;40888;48.148;11.526;2023-07-13T01:33:19;18.30;99.90
22956;DHT22;40888;48.148;11.526;2023-07-13T01:35:46;18.30;99.90
22956;DHT22;40888;48.148;11.526;2023-07-13T01:38:15;18.30;99.90
22956;DHT22;40888;48.148;11.526;2023-07-13T01:40:42;18.30;99.90
22956;DHT22;40888;48.148;11.526;2023-07-13T01:43:07;18.20;99.90
22956;DHT22;40888;48.148;11.526;2023-07-13T01:45:33;18.30;99.90
22956;DHT22;40888;48.148;11.526;2023-07-13T01:47:59;18.40;99.90
22956;DHT22;40888;48.148;11.526;2023-07-13T01:50:25;18.40;99.90
22956;DHT22;40888;48.148;11.526;2023-07-13T01:52:51;18.40;99.90
22956;DHT22;40888;48.148;11.526;2023-07-13T01:55:17;18.30;99.90
22956;DHT22;40888;48.148;11.526;2023-07-13T01:57:43;18.40;99.90
22956;DHT22;40888;48.148;11.526;2023-07-13T02:00:10;18.40;99.90
22956;DHT22;40888;48.148;11.526;2023-07-13T02:02:36;18.40;99.90
22956;DHT22;40888;48.148;11.526;2023-07-13T02:05:02;18.50;99.90
22956;DHT22;40888;48.148;11.526;2023-07-13T02:07:28;18.40;99.90
22956;DHT22;40888;48.148;11.526;2023-07-13T02:09:53;18.40;99.90
22956;DHT22;40888;48.148;11.526;2023-07-13T02:12:19;18.20;99.90
22956;DHT22;40888;48.148;11.526;2023-07-13T02:14:45;18.30;99.90
22956;DHT22;40888;48.148;11.526;2023-07-13T02:17:11;18.30;99.90
22956;DHT22;40888;48.148;11.526;2023-07-13T02:19:37;18.30;99.90
22956;DHT22;40888;48.148;11.526;2023-07-13T02:22:03;18.30;99.90
22956;DHT22;40888;48.148;11.526;2023-07-13T02:24:29;18.30;99.90
22956;DHT22;40888;48.148;11.526;2023-07-13T02:26:55;18.40;99.90
22956;DHT22;40888;48.148;11.526;2023-07-13T02:29:20;18.40;99.90
22956;DHT22;40888;48.148;11.526;2023-07-13T02:31:46;18.30;99.90
22956;DHT22;40888;48.148;11.526;2023-07-13T02:34:12;18.50;99.90
22956;DHT22;40888;48.148;11.526;2023-07-13T02:36:38;18.40;99.90
22956;DHT22;40888;48.148;11.526;2023-07-13T02:39:05;18.30;99.90
22956;DHT22;40888;48.148;11.526;2023-07-13T02:41:31;18.50;99.90
22956;DHT22;40888;48.148;11.526;2023-07-13T02:43:58;18.30;99.90
22956;DHT22;40888;48.148;11.526;2023-07-13T02:46:33;18.30;99.90
22956;DHT22;40888;48.148;11.526;2023-07-13T02:48:59;18.20;99.90
22956;DHT22;40888;48.148;11.526;2023-07-13T02:51:26;18.30;99.90
22956;DHT22;40888;48.148;11.526;2023-07-13T02:53:51;18.30;99.90
22956;DHT22;40888;48.148;11.526;2023-07-13T02:56:22;18.30;99.90
22956;DHT22;40888;48.148;11.526;2023-07-13T02:58:48;17.80;99.90
22956;DHT22;40888;48.148;11.526;2023-07-13T03:01:13;17.70;99.90
22956;DHT22;40888;48.148;11.526;2023-07-13T03:03:45;17.60;99.90
22956;DHT22;40888;48.148;11.526;2023-07-13T03:06:12;17.60;99.90
22956;DHT22;40888;48.148;11.526;2023-07-13T03:08:38;17.40;99.90
22956;DHT22;40888;48.148;11.526;2023-07-13T03:11:10;17.40;99.90
22956;DHT22;40888;48.148;11.526;2023-07-13T03:13:38;17.40;99.90
22956;DHT22;40888;48.148;11.526;2023-07-13T03:16:04;17.40;99.90
22956;DHT22;40888;48.148;11.526;2023-07-13T03:18:30;17.40;99.90
22956;DHT22;40888;48.148;11.526;2023-07-13T03:20:55;17.40;99.90
22956;DHT22;40888;48.148;11.526;2023-07-13T03:23:22;17.40;99.90
22956;DHT22;40888;48.148;11.526;2023-07-13T03:25:48;17.20;99.90
22956;DHT22;40888;48.148;11.526;2023-07-13T03:28:15;17.20;99.90
22956;DHT22;40888;48.148;11.526;2023-07-13T03:30:41;17.20;99.90
22956;DHT22;40888;48.148;11.526;2023-07-13T03:33:07;17.20;99.90
22956;DHT22;40888;48.148;11.526;2023-07-13T03:35:35;17.30;99.90
22956;DHT22;40888;48.148;11.526;2023-07-13T03:38:01;17.20;99.90
22956;DHT22;40888;48.148;11.526;2023-07-13T03:40:28;17.10;99.90
22956;DHT22;40888;48.148;11.526;2023-07-13T03:42:53;17.20;99.90
22956;DHT22;40888;48.148;11.526;2023-07-13T03:45:20;17.20;99.90
22956;DHT22;40888;48.148;11.526;2023-07-13T03:47:45;17.10;99.90
22956;DHT22;40888;48.148;11.526;2023-07-13T03:50:11;17.10;99.90
22956;DHT22;40888;48.148;11.526;2023-07-13T03:52:37;17.10;99.90
22956;DHT22;40888;48.148;11.526;2023-07-13T03:55:03;17.10;99.90
22956;DHT22;40888;48.148;11.526;2023-07-13T03:57:28;17.10;99.90
22956;DHT22;40888;48.148;11.526;2023-07-13T03:59:54;17.10;99.90
22956;DHT22;40888;48.148;11.526;2023-07-13T04:02:20;17.00;99.90
22956;DHT22;40888;48.148;11.526;2023-07-13T04:04:46;16.90;99.90
22956;DHT22;40888;48.148;11.526;2023-07-13T04:07:12;16.90;99.90
22956;DHT22;40888;48.148;11.526;2023-07-13T04:09:38;16.80;99.90
22956;DHT22;40888;48.148;11.526;2023-07-13T04:12:04;16.80;99.90
22956;DHT22;40888;48.148;11.526;2023-07-13T04:14:30;16.80;99.90
22956;DHT22;40888;48.148;11.526;2023-07-13T04:16:56;16.90;99.90
22956;DHT22;40888;48.148;11.526;2023-07-13T04:19:22;16.80;99.90
22956;DHT22;40888;48.148;11.526;2023-07-13T04:21:48;16.90;99.90
22956;DHT22;40888;48.148;11.526;2023-07-13T04:24:14;16.90;99.90
22956;DHT22;40888;48.148;11.526;2023-07-13T04:26:40;16.90;99.90
22956;DHT22;40888;48.148;11.526;2023-07-13T04:29:06;16.90;99.90
22956;DHT22;40888;48.148;11.526;2023-07-13T04:31:32;16.90;99.90
22956;DHT22;40888;48.148;11.526;2023-07-13T04:33:59;17.00;99.90
22956;DHT22;40888;48.148;11.526;2023-07-13T04:36:25;16.90;99.90
22956;DHT22;40888;48.148;11.526;2023-07-13T04:38:54;17.00;99.90
22956;DHT22;40888;48.148;11.526;2023-07-13T04:41:21;16.90;99.90
22956;DHT22;40888;48.148;11.526;2023-07-13T04:43:47;16.90;99.90
22956;DHT22;40888;48.148;11.526;2023-07-13T04:46:15;16.90;99.90
22956;DHT22;40888;48.148;11.526;2023-07-13T04:48:43;17.00;99.90
22956;DHT22;40888;48.148;11.526;2023-07-13T04:51:09;17.00;99.90
22956;DHT22;40888;48.148;11.526;2023-07-13T04:53:35;17.00;99.90
22956;DHT22;40888;48.148;11.526;2023-07-13T04:56:02;17.00;99.90
22956;DHT22;40888;48.148;11.526;2023-07-13T04:58:28;17.00;99.90
22956;DHT22;40888;48.148;11.526;2023-07-13T05:01:00;17.00;99.90
22956;DHT22;40888;48.148;11.526;2023-07-13T05:03:25;17.00;99.90
22956;DHT22;40888;48.148;11.526;2023-07-13T05:05:56;17.00;99.90
22956;DHT22;40888;48.148;11.526;2023-07-13T05:08:22;17.00;99.90
22956;DHT22;40888;48.148;11.526;2023-07-13T05:10:47;17.00;99.90
22956;DHT22;40888;48.148;11.526;2023-07-13T05:13:13;17.00;99.90
22956;DHT22;40888;48.148;11.526;2023-07-13T05:15:39;17.10;99.90
22956;DHT22;40888;48.148;11.526;2023-07-13T05:18:05;17.10;99.90
22956;DHT22;40888;48.148;11.526;2023-07-13T05:20:30;17.20;99.90
22956;DHT22;40888;48.148;11.526;2023-07-13T05:22:56;17.30;99.90
22956;DHT22;40888;48.148;11.526;2023-07-13T05:25:22;17.20;99.90
22956;DHT22;40888;48.148;11.526;2023-07-13T05:27:47;17.20;99.90
22956;DHT22;40888;48.148;11.526;2023-07-13T05:30:14;17.20;99.90
22956;DHT22;40888;48.148;11.526;2023-07-13T05:32:40;17.10;99.90
22956;DHT22;40888;48.148;11.526;2023-07-13T05:35:06;17.10;99.90
22956;DHT22;40888;48.148;11.526;2023-07-13T05:37:32;17.00;99.90
22956;DHT22;40888;48.148;11.526;2023-07-13T05:39:58;17.00;99.90
22956;DHT22;40888;48.148;11.526;2023-07-13T05:42:24;17.10;99.90
22956;DHT22;40888;48.148;11.526;2023-07-13T05:44:50;17.10;99.90
22956;DHT22;40888;48.148;11.526;2023-07-13T05:47:16;17.20;99.90
22956;DHT22;40888;48.148;11.526;2023-07-13T05:49:41;17.20;99.90
22956;DHT22;40888;48.148;11.526;2023-07-13T05:52:07;17.20;99.90
22956;DHT22;40888;48.148;11.526;2023-07-13T05:54:33;17.30;99.90
22956;DHT22;40888;48.148;11.526;2023-07-13T05:56:58;17.40;99.90
22956;DHT22;40888;48.148;11.526;2023-07-13T05:59:24;17.50;99.90
22956;DHT22;40888;48.148;11.526;2023-07-13T06:01:51;17.40;99.90
22956;DHT22;40888;48.148;11.526;2023-07-13T06:04:18;17.50;99.90
22956;DHT22;40888;48.148;11.526;2023-07-13T06:06:44;17.40;99.90
22956;DHT22;40888;48.148;11.526;2023-07-13T06:09:10;17.40;99.90
22956;DHT22;40888;48.148;11.526;2023-07-13T06:11:36;17.40;99.90
22956;DHT22;40888;48.148;11.526;2023-07-13T06:14:02;17.40;99.90
22956;DHT22;40888;48.148;11.526;2023-07-13T06:16:29;17.50;99.90
22956;DHT22;40888;48.148;11.526;2023-07-13T06:18:55;17.40;99.90
22956;DHT22;40888;48.148;11.526;2023-07-13T06:21:22;17.40;99.90
22956;DHT22;40888;48.148;11.526;2023-07-13T06:23:50;17.50;99.90
22956;DHT22;40888;48.148;11.526;2023-07-13T06:26:18;17.50;99.90
22956;DHT22;40888;48.148;11.526;2023-07-13T06:28:44;17.60;99.90
22956;DHT22;40888;48.148;11.526;2023-07-13T06:31:11;17.70;99.90
22956;DHT22;40888;48.148;11.526;2023-07-13T06:33:38;17.80;99.90
22956;DHT22;40888;48.148;11.526;2023-07-13T06:36:05;17.70;99.90
22956;DHT22;40888;48.148;11.526;2023-07-13T06:38:32;17.70;99.90
22956;DHT22;40888;48.148;11.526;2023-07-13T06:40:57;17.90;99.90
22956;DHT22;40888;48.148;11.526;2023-07-13T06:43:23;17.90;99.90
22956;DHT22;40888;48.148;11.526;2023-07-13T06:45:51;17.80;99.90
22956;DHT22;40888;48.148;11.526;2023-07-13T06:48:18;17.70;99.90
22956;DHT22;40888;48.148;11.526;2023-07-13T06:50:45;17.60;99.90
22956;DHT22;40888;48.148;11.526;2023-07-13T06:53:11;17.70;99.90
22956;DHT22;40888;48.148;11.526;2023-07-13T06:55:38;17.70;99.90
22956;DHT22;40888;48.148;11.526;2023-07-13T06:58:04;17.70;99.90
22956;DHT22;40888;48.148;11.526;2023-07-13T07:00:30;17.60;99.90
22956;DHT22;40888;48.148;11.526;2023-07-13T07:02:55;17.70;99.90
22956;DHT22;40888;48.148;11.526;2023-07-13T07:05:21;17.70;99.90
22956;DHT22;40888;48.148;11.526;2023-07-13T07:07:51;17.70;99.90
22956;DHT22;40888;48.148;11.526;2023-07-13T07:10:18;17.70;99.90
22956;DHT22;40888;48.148;11.526;2023-07-13T07:12:44;17.70;99.90
22956;DHT22;40888;48.148;11.526;2023-07-13T07:15:09;17.80;99.90
22956;DHT22;40888;48.148;11.526;2023-07-13T07:17:35;17.80;99.90
22956;DHT22;40888;48.148;11.526;2023-07-13T07:20:02;17.80;99.90
22956;DHT22;40888;48.148;11.526;2023-07-13T07:22:29;17.70;99.90
22956;DHT22;40888;48.148;11.526;2023-07-13T07:24:56;17.70;99.90
22956;DHT22;40888;48.148;11.526;2023-07-13T07:27:22;17.70;99.90
22956;DHT22;40888;48.148;11.526;2023-07-13T07:29:49;17.70;99.90
22956;DHT22;40888;48.148;11.526;2023-07-13T07:32:15;17.60;99.90
22956;DHT22;40888;48.148;11.526;2023-07-13T07:34:40;17.70;99.90
22956;DHT22;40888;48.148;11.526;2023-07-13T07:37:06;17.70;99.90
22956;DHT22;40888;48.148;11.526;2023-07-13T07:39:32;17.70;99.90
22956;DHT22;40888;48.148;11.526;2023-07-13T07:41:58;17.80;99.90
22956;DHT22;40888;48.148;11.526;2023-07-13T07:44:24;17.70;99.90
22956;DHT22;40888;48.148;11.526;2023-07-13T07:46:50;17.70;99.90
22956;DHT22;40888;48.148;11.526;2023-07-13T07:49:15;17.80;99.90
22956;DHT22;40888;48.148;11.526;2023-07-13T07:51:41;17.70;99.90
22956;DHT22;40888;48.148;11.526;2023-07-13T07:54:07;17.80;99.90
22956;DHT22;40888;48.148;11.526;2023-07-13T07:56:33;17.70;99.90
22956;DHT22;40888;48.148;11.526;2023-07-13T07:58:59;17.70;99.90
22956;DHT22;40888;48.148;11.526;2023-07-13T08:01:24;17.50;99.90
22956;DHT22;40888;48.148;11.526;2023-07-13T08:03:50;17.60;99.90
22956;DHT22;40888;48.148;11.526;2023-07-13T08:06:16;17.60;99.90
22956;DHT22;40888;48.148;11.526;2023-07-13T08:08:42;17.60;99.90
22956;DHT22;40888;48.148;11.526;2023-07-13T08:11:08;17.50;99.90
22956;DHT22;40888;48.148;11.526;2023-07-13T08:13:35;17.50;99.90
22956;DHT22;40888;48.148;11.526;2023-07-13T08:16:03;17.30;99.90
22956;DHT22;40888;48.148;11.526;2023-07-13T08:18:29;17.40;99.90
22956;DHT22;40888;48.148;11.526;2023-07-13T08:20:55;17.40;99.90
22956;DHT22;40888;48.148;11.526;2023-07-13T08:23:22;17.30;99.90
22956;DHT22;40888;48.148;11.526;2023-07-13T08:25:52;17.30;99.90
22956;DHT22;40888;48.148;11.526;2023-07-13T08:28:20;17.20;99.90
22956;DHT22;40888;48.148;11.526;2023-07-13T08:30:46;17.20;99.90
22956;DHT22;40888;48.148;11.526;2023-07-13T08:33:22;17.10;99.90
22956;DHT22;40888;48.148;11.526;2023-07-13T08:35:51;17.10;99.90
22956;DHT22;40888;48.148;11.526;2023-07-13T08:38:17;17.10;99.90
22956;DHT22;40888;48.148;11.526;2023-07-13T08:40:44;17.10;99.90
22956;DHT22;40888;48.148;11.526;2023-07-13T08:43:16;17.10;99.90
22956;DHT22;40888;48.148;11.526;2023-07-13T08:45:49;17.10;99.90
22956;DHT22;40888;48.148;11.526;2023-07-13T08:48:26;17.10;99.90
22956;DHT22;40888;48.148;11.526;2023-07-13T08:51:04;17.10;99.90
22956;DHT22;40888;48.148;11.526;2023-07-13T08:53:38;17.20;99.90
22956;DHT22;40888;48.148;11.526;2023-07-13T08:56:10;17.20;99.90
22956;DHT22;40888;48.148;11.526;2023-07-13T08:58:38;17.40;99.90
22956;DHT22;40888;48.148;11.526;2023-07-13T09:01:20;17.20;99.90
22956;DHT22;40888;48.148;11.526;2023-07-13T09:06:34;17.30;99.90
22956;DHT22;40888;48.148;11.526;2023-07-13T09:09:07;17.20;99.90
22956;DHT22;40888;48.148;11.526;2023-07-13T09:14:50;17.20;99.90
22956;DHT22;40888;48.148;11.526;2023-07-13T09:17:50;17.40;99.90
22956;DHT22;40888;48.148;11.526;2023-07-13T09:20:25;17.40;99.90
22956;DHT22;40888;48.148;11.526;2023-07-13T09:22:53;17.50;99.90
22956;DHT22;40888;48.148;11.526;2023-07-13T09:25:34;17.40;99.90
22956;DHT22;40888;48.148;11.526;2023-07-13T09:28:17;17.60;99.90
22956;DHT22;40888;48.148;11.526;2023-07-13T09:30:58;17.40;99.90
22956;DHT22;40888;48.148;11.526;2023-07-13T09:33:25;17.80;99.90
22956;DHT22;40888;48.148;11.526;2023-07-13T09:35:55;17.80;99.90
22956;DHT22;40888;48.148;11.526;2023-07-13T09:38:26;17.70;99.90
22956;DHT22;40888;48.148;11.526;2023-07-13T09:41:03;17.70;99.90
22956;DHT22;40888;48.148;11.526;2023-07-13T09:43:30;17.70;99.90
22956;DHT22;40888;48.148;11.526;2023-07-13T09:45:56;17.60;99.90
22956;DHT22;40888;48.148;11.526;2023-07-13T09:48:21;17.60;99.90
22956;DHT22;40888;48.148;11.526;2023-07-13T09:50:48;17.70;99.90
22956;DHT22;40888;48.148;11.526;2023-07-13T09:53:18;17.60;99.90
22956;DHT22;40888;48.148;11.526;2023-07-13T09:55:47;17.60;99.90
22956;DHT22;40888;48.148;11.526;2023-07-13T09:58:21;17.80;99.90
22956;DHT22;40888;48.148;11.526;2023-07-13T10:01:01;17.90;99.90
22956;DHT22;40888;48.148;11.526;2023-07-13T10:03:33;18.00;99.90
22956;DHT22;40888;48.148;11.526;2023-07-13T10:06:17;18.10;99.90
22956;DHT22;40888;48.148;11.526;2023-07-13T10:08:45;18.20;99.90
22956;DHT22;40888;48.148;11.526;2023-07-13T10:11:19;18.40;99.90
22956;DHT22;40888;48.148;11.526;2023-07-13T10:13:53;18.40;99.90
22956;DHT22;40888;48.148;11.526;2023-07-13T10:16:21;18.50;99.90
22956;DHT22;40888;48.148;11.526;2023-07-13T10:18:55;18.40;99.90
22956;DHT22;40888;48.148;11.526;2023-07-13T10:21:26;18.60;99.90
22956;DHT22;40888;48.148;11.526;2023-07-13T10:24:17;18.50;99.90
22956;DHT22;40888;48.148;11.526;2023-07-13T10:27:01;18.40;99.90
22956;DHT22;40888;48.148;11.526;2023-07-13T10:29:34;18.50;99.90
22956;DHT22;40888;48.148;11.526;2023-07-13T10:32:01;18.70;99.90
22956;DHT22;40888;48.148;11.526;2023-07-13T10:34:27;19.00;99.90
22956;DHT22;40888;48.148;11.526;2023-07-13T10:36:53;18.90;99.90
22956;DHT22;40888;48.148;11.526;2023-07-13T10:39:22;19.00;99.90
22956;DHT22;40888;48.148;11.526;2023-07-13T10:42:03;19.20;99.90
22956;DHT22;40888;48.148;11.526;2023-07-13T10:44:31;19.10;99.90
22956;DHT22;40888;48.148;11.526;2023-07-13T10:47:04;19.10;99.90
22956;DHT22;40888;48.148;11.526;2023-07-13T10:49:33;19.20;99.90
22956;DHT22;40888;48.148;11.526;2023-07-13T10:52:00;19.30;99.90
22956;DHT22;40888;48.148;11.526;2023-07-13T10:54:31;19.30;99.90
22956;DHT22;40888;48.148;11.526;2023-07-13T10:59:38;19.60;99.90
22956;DHT22;40888;48.148;11.526;2023-07-13T11:02:12;19.50;99.90
22956;DHT22;40888;48.148;11.526;2023-07-13T11:04:46;19.50;99.90
22956;DHT22;40888;48.148;11.526;2023-07-13T11:07:30;19.80;99.90
22956;DHT22;40888;48.148;11.526;2023-07-13T11:10:04;19.60;99.90
22956;DHT22;40888;48.148;11.526;2023-07-13T11:12:53;19.60;99.90
22956;DHT22;40888;48.148;11.526;2023-07-13T11:15:44;19.60;99.90
22956;DHT22;40888;48.148;11.526;2023-07-13T11:18:22;20.10;99.90
22956;DHT22;40888;48.148;11.526;2023-07-13T11:20:49;19.80;99.90
22956;DHT22;40888;48.148;11.526;2023-07-13T11:23:18;19.60;99.90
22956;DHT22;40888;48.148;11.526;2023-07-13T11:25:45;20.00;97.40
22956;DHT22;40888;48.148;11.526;2023-07-13T11:33:19;20.20;99.90
22956;DHT22;40888;48.148;11.526;2023-07-13T11:35:58;20.40;99.90
22956;DHT22;40888;48.148;11.526;2023-07-13T11:38:40;20.50;99.90
22956;DHT22;40888;48.148;11.526;2023-07-13T11:41:12;20.60;97.30
22956;DHT22;40888;48.148;11.526;2023-07-13T11:43:39;20.70;99.90
22956;DHT22;40888;48.148;11.526;2023-07-13T11:46:16;20.90;99.90
22956;DHT22;40888;48.148;11.526;2023-07-13T11:48:45;21.20;91.50
22956;DHT22;40888;48.148;11.526;2023-07-13T11:51:19;21.00;86.40
22956;DHT22;40888;48.148;11.526;2023-07-13T11:53:48;21.00;94.50
22956;DHT22;40888;48.148;11.526;2023-07-13T11:56:14;21.00;92.50
22956;DHT22;40888;48.148;11.526;2023-07-13T11:58:40;20.70;91.50
22956;DHT22;40888;48.148;11.526;2023-07-13T12:01:20;21.10;99.90
22956;DHT22;40888;48.148;11.526;2023-07-13T12:03:46;21.50;95.90
22956;DHT22;40888;48.148;11.526;2023-07-13T12:08:47;21.40;93.50
22956;DHT22;40888;48.148;11.526;2023-07-13T12:11:18;21.60;81.00
22956;DHT22;40888;48.148;11.526;2023-07-13T12:13:44;21.60;92.50
22956;DHT22;40888;48.148;11.526;2023-07-13T12:16:31;21.50;93.30
22956;DHT22;40888;48.148;11.526;2023-07-13T12:19:00;21.30;99.90
22956;DHT22;40888;48.148;11.526;2023-07-13T12:21:38;21.30;91.20
22956;DHT22;40888;48.148;11.526;2023-07-13T12:24:04;21.20;90.80
22956;DHT22;40888;48.148;11.526;2023-07-13T12:26:37;21.00;88.20
22956;DHT22;40888;48.148;11.526;2023-07-13T12:29:05;20.90;99.90
22956;DHT22;40888;48.148;11.526;2023-07-13T12:34:09;20.90;91.70
22956;DHT22;40888;48.148;11.526;2023-07-13T12:36:49;20.90;90.00
22956;DHT22;40888;48.148;11.526;2023-07-13T12:41:44;20.80;91.10
22956;DHT22;40888;48.148;11.526;2023-07-13T12:44:16;21.30;83.20
22956;DHT22;40888;48.148;11.526;2023-07-13T12:47:06;21.10;99.90
22956;DHT22;40888;48.148;11.526;2023-07-13T12:49:42;21.10;84.00
22956;DHT22;40888;48.148;11.526;2023-07-13T12:52:19;21.00;99.40
22956;DHT22;40888;48.148;11.526;2023-07-13T12:54:57;21.20;99.90
22956;DHT22;40888;48.148;11.526;2023-07-13T12:57:23;21.10;99.90
22956;DHT22;40888;48.148;11.526;2023-07-13T12:59:52;21.60;83.30
22956;DHT22;40888;48.148;11.526;2023-07-13T13:02:30;21.70;84.90
22956;DHT22;40888;48.148;11.526;2023-07-13T13:04:58;21.70;99.90
22956;DHT22;40888;48.148;11.526;2023-07-13T13:07:25;21.40;93.40
22956;DHT22;40888;48.148;11.526;2023-07-13T13:09:51;21.50;97.20
22956;DHT22;40888;48.148;11.526;2023-07-13T13:12:19;21.50;99.90
22956;DHT22;40888;48.148;11.526;2023-07-13T13:14:44;21.60;88.10
22956;DHT22;40888;48.148;11.526;2023-07-13T13:17:30;22.10;74.50
22956;DHT22;40888;48.148;11.526;2023-07-13T13:19:57;22.50;68.00
22956;DHT22;40888;48.148;11.526;2023-07-13T13:22:23;22.20;67.00
22956;DHT22;40888;48.148;11.526;2023-07-13T13:24:48;22.30;65.20
22956;DHT22;40888;48.148;11.526;2023-07-13T13:27:22;22.50;65.50
22956;DHT22;40888;48.148;11.526;2023-07-13T13:29:49;22.60;67.50
22956;DHT22;40888;48.148;11.526;2023-07-13T13:32:17;22.60;65.00
22956;DHT22;40888;48.148;11.526;2023-07-13T13:34:44;22.50;64.80
22956;DHT22;40888;48.148;11.526;2023-07-13T13:37:20;22.60;64.20
22956;DHT22;40888;48.148;11.526;2023-07-13T13:39:47;22.40;63.10
22956;DHT22;40888;48.148;11.526;2023-07-13T13:42:13;22.40;61.40
22956;DHT22;40888;48.148;11.526;2023-07-13T13:44:39;22.40;63.40
22956;DHT22;40888;48.148;11.526;2023-07-13T13:47:33;22.40;66.00
22956;DHT22;40888;48.148;11.526;2023-07-13T13:49:59;22.20;64.60
22956;DHT22;40888;48.148;11.526;2023-07-13T13:52:25;22.20;68.90
22956;DHT22;40888;48.148;11.526;2023-07-13T13:54:51;22.20;68.10
22956;DHT22;40888;48.148;11.526;2023-07-13T13:57:25;22.30;66.50
22956;DHT22;40888;48.148;11.526;2023-07-13T13:59:51;22.30;67.70
22956;DHT22;40888;48.148;11.526;2023-07-13T14:02:26;22.40;71.10
22956;DHT22;40888;48.148;11.526;2023-07-13T14:04:58;22.50;74.50
22956;DHT22;40888;48.148;11.526;2023-07-13T14:07:25;22.80;65.80
22956;DHT22;40888;48.148;11.526;2023-07-13T14:09:53;22.60;64.30
22956;DHT22;40888;48.148;11.526;2023-07-13T14:12:20;22.60;64.90
22956;DHT22;40888;48.148;11.526;2023-07-13T14:14:45;22.50;67.20
22956;DHT22;40888;48.148;11.526;2023-07-13T14:17:22;22.80;67.40
22956;DHT22;40888;48.148;11.526;2023-07-13T14:19:50;23.20;65.90
22956;DHT22;40888;48.148;11.526;2023-07-13T14:22:18;23.50;65.30
22956;DHT22;40888;48.148;11.526;2023-07-13T14:24:44;23.30;59.00
22956;DHT22;40888;48.148;11.526;2023-07-13T14:27:11;23.00;59.00
22956;DHT22;40888;48.148;11.526;2023-07-13T14:29:37;22.80;60.20
22956;DHT22;40888;48.148;11.526;2023-07-13T14:32:03;23.10;59.70
22956;DHT22;40888;48.148;11.526;2023-07-13T14:34:30;23.20;58.60
22956;DHT22;40888;48.148;11.526;2023-07-13T14:36:56;23.20;57.70
22956;DHT22;40888;48.148;11.526;2023-07-13T14:39:23;23.10;58.40
22956;DHT22;40888;48.148;11.526;2023-07-13T14:41:51;23.00;61.20
22956;DHT22;40888;48.148;11.526;2023-07-13T14:44:20;23.30;59.90
22956;DHT22;40888;48.148;11.526;2023-07-13T14:46:46;23.50;59.20
22956;DHT22;40888;48.148;11.526;2023-07-13T14:49:15;23.40;57.90
22956;DHT22;40888;48.148;11.526;2023-07-13T14:51:42;23.30;58.10
22956;DHT22;40888;48.148;11.526;2023-07-13T14:54:08;23.30;61.00
22956;DHT22;40888;48.148;11.526;2023-07-13T14:56:35;23.50;59.00
22956;DHT22;40888;48.148;11.526;2023-07-13T14:59:00;23.60;57.20
22956;DHT22;40888;48.148;11.526;2023-07-13T15:01:26;23.60;57.00
22956;DHT22;40888;48.148;11.526;2023-07-13T15:03:53;23.50;56.70
22956;DHT22;40888;48.148;11.526;2023-07-13T15:06:19;23.60;58.00
22956;DHT22;40888;48.148;11.526;2023-07-13T15:08:46;23.70;58.90
22956;DHT22;40888;48.148;11.526;2023-07-13T15:11:12;23.80;57.30
22956;DHT22;40888;48.148;11.526;2023-07-13T15:13:39;23.70;56.50
22956;DHT22;40888;48.148;11.526;2023-07-13T15:16:13;23.80;57.20
22956;DHT22;40888;48.148;11.526;2023-07-13T15:18:39;23.70;57.40
22956;DHT22;40888;48.148;11.526;2023-07-13T15:21:10;23.50;56.30
22956;DHT22;40888;48.148;11.526;2023-07-13T15:23:40;23.60;56.40
22956;DHT22;40888;48.148;11.526;2023-07-13T15:26:12;23.60;54.90
22956;DHT22;40888;48.148;11.526;2023-07-13T15:28:38;23.40;55.40
22956;DHT22;40888;48.148;11.526;2023-07-13T15:31:21;23.50;57.50
22956;DHT22;40888;48.148;11.526;2023-07-13T15:33:49;23.60;57.70
22956;DHT22;40888;48.148;11.526;2023-07-13T15:36:17;23.50;56.80
22956;DHT22;40888;48.148;11.526;2023-07-13T15:38:43;23.60;57.50
22956;DHT22;40888;48.148;11.526;2023-07-13T15:41:23;23.70;56.20
22956;DHT22;40888;48.148;11.526;2023-07-13T15:43:51;23.20;56.20
22956;DHT22;40888;48.148;11.526;2023-07-13T15:46:22;23.20;57.30